Time,TemperatureF,DewpointF,PressureIn,WindDirection,WindDirectionDegrees,WindSpeedMPH,WindSpeedGustMPH,Humidity,HourlyPrecipIn,Conditions,Clouds,dailyrainin,SoftwareType,DateUTC
2013-04-13 00:00:00,44.8,44.0,29.53,ESE,112,2.5,3.1,97,0.16,,---,0.00,VWS V14.01,2013-04-13 04:00:00,
2013-04-13 00:05:00,45.1,44.3,29.53,ENE,68,3.6,3.6,97,0.16,,---,0.00,VWS V14.01,2013-04-13 04:05:00,
2013-04-13 00:10:00,45.0,44.2,29.50,ENE,68,3.8,3.8,97,0.16,,---,0.00,VWS V14.01,2013-04-13 04:10:00,
2013-04-13 00:15:00,45.1,44.3,29.50,ENE,68,1.6,5.6,97,0.16,,---,0.00,VWS V14.01,2013-04-13 04:15:00,
2013-04-13 00:20:00,45.1,44.3,29.50,ESE,112,4.0,4.0,97,0.16,,---,0.00,VWS V14.01,2013-04-13 04:20:00,
2013-04-13 00:25:00,45.1,44.3,29.53,ESE,112,4.3,4.3,97,0.16,,---,0.00,VWS V14.01,2013-04-13 04:25:00,
2013-04-13 00:30:00,45.1,44.3,29.53,ENE,68,3.8,3.8,97,0.16,,---,0.00,VWS V14.01,2013-04-13 04:30:00,
2013-04-13 00:35:00,45.1,44.1,29.53,ENE,68,1.6,1.6,96,0.16,,---,0.00,VWS V14.01,2013-04-13 04:35:00,
2013-04-13 00:40:00,45.3,44.2,29.53,NE,45,2.9,2.9,96,0.16,,---,0.00,VWS V14.01,2013-04-13 04:40:00,
2013-04-13 00:45:00,45.1,44.1,29.53,ENE,68,4.9,4.9,96,0.16,,---,0.00,VWS V14.01,2013-04-13 04:45:00,
2013-04-13 00:50:00,45.0,43.9,29.53,ENE,68,3.8,3.8,96,0.12,,---,0.00,VWS V14.01,2013-04-13 04:50:00,
2013-04-13 00:55:00,45.1,44.1,29.56,NE,45,2.9,2.9,96,0.04,,---,0.00,VWS V14.01,2013-04-13 04:55:00,
2013-04-13 01:00:00,45.1,44.1,29.56,NNE,22,2.7,2.7,96,0.00,,---,0.00,VWS V14.01,2013-04-13 05:00:00,
2013-04-13 01:05:00,45.1,44.1,29.56,NNE,22,3.1,3.1,96,0.00,,---,0.00,VWS V14.01,2013-04-13 05:05:00,
2013-04-13 01:10:00,45.1,44.1,29.56,ENE,68,3.8,4.9,96,0.00,,---,0.00,VWS V14.01,2013-04-13 05:10:00,
2013-04-13 01:15:00,45.0,43.9,29.56,NNE,22,2.9,2.9,96,0.00,,---,0.00,VWS V14.01,2013-04-13 05:15:00,
2013-04-13 01:20:00,45.0,43.9,29.56,ENE,68,3.4,5.6,96,0.00,,---,0.00,VWS V14.01,2013-04-13 05:20:00,
2013-04-13 01:25:00,45.0,43.9,29.53,ENE,68,4.3,4.7,96,0.00,,---,0.00,VWS V14.01,2013-04-13 05:25:00,
2013-04-13 01:30:00,45.1,43.8,29.53,ENE,68,2.0,2.0,95,0.00,,---,0.00,VWS V14.01,2013-04-13 05:30:00,
2013-04-13 01:35:00,45.0,43.6,29.53,NE,45,4.3,4.3,95,0.00,,---,0.00,VWS V14.01,2013-04-13 05:35:00,
2013-04-13 01:40:00,45.0,43.6,29.53,NE,45,0.9,0.9,95,0.00,,---,0.00,VWS V14.01,2013-04-13 05:40:00,
2013-04-13 01:45:00,45.0,43.6,29.53,NE,45,3.1,3.1,95,0.00,,---,0.00,VWS V14.01,2013-04-13 05:45:00,
2013-04-13 01:50:00,45.1,43.8,29.53,NNW,338,1.3,1.3,95,0.00,,---,0.00,VWS V14.01,2013-04-13 05:50:00,
2013-04-13 01:55:00,45.0,43.6,29.56,NE,45,3.1,3.1,95,0.00,,---,0.00,VWS V14.01,2013-04-13 05:55:00,
2013-04-13 02:00:00,45.0,43.6,29.56,NNE,22,2.7,2.7,95,0.00,,---,0.00,VWS V14.01,2013-04-13 06:00:00,
2013-04-13 02:05:00,45.1,43.8,29.56,NNE,22,2.7,4.9,95,0.00,,---,0.00,VWS V14.01,2013-04-13 06:05:00,
2013-04-13 02:10:00,45.0,43.6,29.56,East,90,1.6,1.6,95,0.00,,---,0.00,VWS V14.01,2013-04-13 06:10:00,
2013-04-13 02:15:00,45.0,43.3,29.56,NNW,338,2.5,2.5,94,0.00,,---,0.00,VWS V14.01,2013-04-13 06:15:00,
2013-04-13 02:20:00,45.1,43.5,29.56,NE,45,2.0,2.5,94,0.00,,---,0.00,VWS V14.01,2013-04-13 06:20:00,
2013-04-13 02:25:00,44.8,43.2,29.56,ENE,68,4.3,5.4,94,0.00,,---,0.00,VWS V14.01,2013-04-13 06:25:00,
2013-04-13 02:30:00,44.8,43.2,29.56,ENE,68,3.8,3.8,94,0.00,,---,0.00,VWS V14.01,2013-04-13 06:30:00,
2013-04-13 02:35:00,45.0,43.3,29.56,North,0,1.6,1.6,94,0.00,,---,0.00,VWS V14.01,2013-04-13 06:35:00,
2013-04-13 02:40:00,45.0,43.6,29.56,NNE,22,3.1,3.1,95,0.00,,---,0.00,VWS V14.01,2013-04-13 06:40:00,
2013-04-13 02:45:00,45.1,43.8,29.56,NNW,338,3.1,3.1,95,0.00,,---,0.00,VWS V14.01,2013-04-13 06:45:00,
2013-04-13 02:51:00,45.1,43.8,29.56,North,0,3.1,3.1,95,0.00,,---,0.00,VWS V14.01,2013-04-13 06:51:00,
2013-04-13 02:56:00,45.1,43.8,29.59,North,0,2.5,2.5,95,0.00,,---,0.00,VWS V14.01,2013-04-13 06:56:00,
2013-04-13 03:01:00,45.3,44.0,29.59,NNE,22,4.3,4.3,95,0.00,,---,0.00,VWS V14.01,2013-04-13 07:01:00,
2013-04-13 03:07:00,45.3,44.0,29.59,NE,45,2.9,3.8,95,0.00,,---,0.00,VWS V14.01,2013-04-13 07:07:00,
2013-04-13 03:12:00,45.3,44.0,29.59,NNE,22,3.4,4.3,95,0.00,,---,0.00,VWS V14.01,2013-04-13 07:12:00,
2013-04-13 03:17:00,45.1,43.8,29.59,NNE,22,4.7,4.7,95,0.00,,---,0.00,VWS V14.01,2013-04-13 07:17:00,
2013-04-13 03:22:00,45.1,43.8,29.59,NW,315,2.5,2.5,95,0.00,,---,0.00,VWS V14.01,2013-04-13 07:22:00,
2013-04-13 03:27:00,45.3,43.7,29.59,ENE,68,2.7,2.7,94,0.00,,---,0.00,VWS V14.01,2013-04-13 07:27:00,
2013-04-13 03:32:00,45.3,43.7,29.59,NE,45,3.4,4.0,94,0.00,,---,0.00,VWS V14.01,2013-04-13 07:32:00,
2013-04-13 03:37:00,45.1,43.5,29.59,ENE,68,2.9,2.9,94,0.00,,---,0.00,VWS V14.01,2013-04-13 07:37:00,
2013-04-13 03:43:00,45.1,43.5,29.62,North,0,0.9,0.9,94,0.00,,---,0.00,VWS V14.01,2013-04-13 07:43:00,
2013-04-13 03:48:00,45.0,43.3,29.62,NE,45,3.6,3.6,94,0.00,,---,0.00,VWS V14.01,2013-04-13 07:48:00,
2013-04-13 03:53:00,45.0,43.1,29.62,ENE,68,3.6,3.6,93,0.00,,---,0.00,VWS V14.01,2013-04-13 07:53:00,
2013-04-13 03:58:00,44.8,42.9,29.62,NNE,22,5.4,5.4,93,0.00,,---,0.00,VWS V14.01,2013-04-13 07:58:00,
2013-04-13 04:03:00,44.8,42.9,29.62,ENE,68,3.1,4.3,93,0.00,,---,0.00,VWS V14.01,2013-04-13 08:03:00,
2013-04-13 04:08:00,45.0,43.1,29.62,ENE,68,2.5,3.1,93,0.00,,---,0.00,VWS V14.01,2013-04-13 08:08:00,
2013-04-13 04:13:00,44.8,42.9,29.62,NE,45,3.1,3.1,93,0.00,,---,0.00,VWS V14.01,2013-04-13 08:13:00,
2013-04-13 04:18:00,45.0,43.1,29.62,NNE,22,2.7,3.6,93,0.00,,---,0.00,VWS V14.01,2013-04-13 08:18:00,
2013-04-13 04:23:00,44.8,42.9,29.62,NNE,22,0.9,3.1,93,0.00,,---,0.00,VWS V14.01,2013-04-13 08:23:00,
2013-04-13 04:28:00,44.8,42.9,29.62,NE,45,0.0,0.0,93,0.00,,---,0.00,VWS V14.01,2013-04-13 08:28:00,
2013-04-13 04:33:00,44.6,42.7,29.62,NNW,338,0.9,0.9,93,0.00,,---,0.00,VWS V14.01,2013-04-13 08:33:00,
2013-04-13 04:38:00,44.6,42.7,29.62,NNE,22,2.0,3.1,93,0.00,,---,0.00,VWS V14.01,2013-04-13 08:38:00,
2013-04-13 04:43:00,44.4,42.5,29.62,NNW,338,2.7,3.6,93,0.00,,---,0.00,VWS V14.01,2013-04-13 08:43:00,
2013-04-13 04:48:00,44.4,42.5,29.62,NNE,22,1.1,1.1,93,0.00,,---,0.00,VWS V14.01,2013-04-13 08:48:00,
2013-04-13 04:53:00,44.4,42.5,29.65,NNE,22,1.6,1.6,93,0.00,,---,0.00,VWS V14.01,2013-04-13 08:53:00,
2013-04-13 04:59:00,44.6,42.7,29.65,NNE,22,1.3,1.6,93,0.00,,---,0.00,VWS V14.01,2013-04-13 08:59:00,
2013-04-13 05:04:00,44.6,42.7,29.65,NNE,22,0.0,0.0,93,0.00,,---,0.00,VWS V14.01,2013-04-13 09:04:00,
2013-04-13 05:09:00,44.6,42.7,29.65,NE,45,1.6,2.5,93,0.00,,---,0.00,VWS V14.01,2013-04-13 09:09:00,
2013-04-13 05:14:00,44.6,42.7,29.65,NNE,22,2.0,2.0,93,0.00,,---,0.00,VWS V14.01,2013-04-13 09:14:00,
2013-04-13 05:19:00,44.8,42.9,29.65,NNE,22,1.6,2.5,93,0.00,,---,0.00,VWS V14.01,2013-04-13 09:19:00,
2013-04-13 05:24:00,44.8,42.9,29.65,NE,45,3.8,5.6,93,0.00,,---,0.00,VWS V14.01,2013-04-13 09:24:00,
2013-04-13 05:29:00,44.6,42.7,29.65,NNW,338,1.6,1.6,93,0.00,,---,0.00,VWS V14.01,2013-04-13 09:29:00,
2013-04-13 05:34:00,44.4,42.5,29.65,NNE,22,0.9,0.9,93,0.00,,---,0.00,VWS V14.01,2013-04-13 09:34:00,
2013-04-13 05:39:00,44.2,42.3,29.65,NNE,22,3.1,3.1,93,0.00,,---,0.00,VWS V14.01,2013-04-13 09:39:00,
2013-04-13 05:44:00,44.1,42.2,29.65,North,0,0.0,1.3,93,0.00,,---,0.00,VWS V14.01,2013-04-13 09:44:00,
2013-04-13 05:49:00,43.9,41.7,29.65,ENE,68,0.9,0.9,92,0.00,,---,0.00,VWS V14.01,2013-04-13 09:49:00,
2013-04-13 05:54:00,43.5,41.3,29.65,NE,45,3.8,3.8,92,0.00,,---,0.00,VWS V14.01,2013-04-13 09:54:00,
2013-04-13 06:00:00,43.5,41.3,29.65,NNE,22,2.7,2.7,92,0.00,,---,0.00,VWS V14.01,2013-04-13 10:00:00,
2013-04-13 06:05:00,43.3,41.2,29.65,NE,45,2.2,2.2,92,0.00,,---,0.00,VWS V14.01,2013-04-13 10:05:00,
2013-04-13 06:10:00,43.2,41.3,29.65,ENE,68,1.3,1.3,93,0.00,,---,0.00,VWS V14.01,2013-04-13 10:10:00,
2013-04-13 06:15:00,43.0,41.1,29.65,North,0,0.0,0.0,93,0.00,,---,0.00,VWS V14.01,2013-04-13 10:15:00,
2013-04-13 06:20:00,42.8,40.9,29.65,NE,45,0.9,0.9,93,0.00,,---,0.00,VWS V14.01,2013-04-13 10:20:00,
2013-04-13 06:25:00,42.6,40.7,29.65,NNE,22,0.0,0.0,93,0.00,,---,0.00,VWS V14.01,2013-04-13 10:25:00,
2013-04-13 06:30:00,42.6,40.7,29.65,NNW,338,0.0,0.0,93,0.00,,---,0.00,VWS V14.01,2013-04-13 10:30:00,
2013-04-13 06:35:00,42.4,40.8,29.65,NE,45,2.0,2.0,94,0.00,,---,0.00,VWS V14.01,2013-04-13 10:35:00,
2013-04-13 06:40:00,42.6,41.0,29.65,NNE,22,0.0,0.0,94,0.00,,---,0.00,VWS V14.01,2013-04-13 10:40:00,
2013-04-13 06:45:00,42.4,40.8,29.65,NNE,22,0.0,0.0,94,0.00,,---,0.00,VWS V14.01,2013-04-13 10:45:00,
2013-04-13 06:50:00,42.6,41.0,29.65,North,0,0.0,0.0,94,0.00,,---,0.00,VWS V14.01,2013-04-13 10:50:00,
2013-04-13 06:56:00,42.6,41.0,29.68,NNW,338,0.0,0.0,94,0.00,,---,0.00,VWS V14.01,2013-04-13 10:56:00,
2013-04-13 07:01:00,42.6,41.0,29.68,North,0,1.6,1.6,94,0.00,,---,0.00,VWS V14.01,2013-04-13 11:01:00,
2013-04-13 07:06:00,42.6,41.0,29.68,NNE,22,0.0,0.0,94,0.00,,---,0.00,VWS V14.01,2013-04-13 11:06:00,
2013-04-13 07:11:00,42.8,41.2,29.68,NW,315,0.0,0.9,94,0.00,,---,0.00,VWS V14.01,2013-04-13 11:11:00,
2013-04-13 07:16:00,43.3,41.7,29.68,NNW,338,2.9,2.9,94,0.00,,---,0.00,VWS V14.01,2013-04-13 11:16:00,
2013-04-13 07:21:00,43.3,41.7,29.68,NNW,338,0.0,0.0,94,0.00,,---,0.00,VWS V14.01,2013-04-13 11:21:00,
2013-04-13 07:27:00,44.1,42.5,29.68,NNE,22,0.9,0.9,94,0.00,,---,0.00,VWS V14.01,2013-04-13 11:27:00,
2013-04-13 07:32:00,44.2,42.9,29.68,NNE,22,2.5,2.5,95,0.00,,---,0.00,VWS V14.01,2013-04-13 11:32:00,
2013-04-13 07:37:00,44.8,43.2,29.68,NNE,22,0.9,2.5,94,0.00,,---,0.00,VWS V14.01,2013-04-13 11:37:00,
2013-04-13 07:42:00,45.3,43.7,29.68,NNE,22,1.3,1.3,94,0.00,,---,0.00,VWS V14.01,2013-04-13 11:42:00,
2013-04-13 07:47:00,45.9,44.0,29.68,NW,315,1.6,1.6,93,0.00,,---,0.00,VWS V14.01,2013-04-13 11:47:00,
2013-04-13 07:52:00,46.6,44.1,29.68,North,0,1.1,2.7,91,0.00,,---,0.00,VWS V14.01,2013-04-13 11:52:00,
2013-04-13 07:58:00,47.1,44.0,29.71,NE,45,1.3,1.3,89,0.00,,---,0.00,VWS V14.01,2013-04-13 11:58:00,
2013-04-13 08:03:00,47.7,44.3,29.71,North,0,0.0,0.0,88,0.00,,---,0.00,VWS V14.01,2013-04-13 12:03:00,
2013-04-13 08:08:00,48.4,43.8,29.68,NE,45,2.2,2.7,84,0.00,,---,0.00,VWS V14.01,2013-04-13 12:08:00,
2013-04-13 08:13:00,49.8,45.5,29.68,NNE,22,0.0,0.0,85,0.00,,---,0.00,VWS V14.01,2013-04-13 12:13:00,
2013-04-13 08:18:00,50.0,44.4,29.68,ENE,68,3.1,3.1,81,0.00,,---,0.00,VWS V14.01,2013-04-13 12:18:00,
2013-04-13 08:23:00,50.2,43.9,29.71,ENE,68,0.0,0.0,79,0.00,,---,0.00,VWS V14.01,2013-04-13 12:23:00,
2013-04-13 08:28:00,50.2,43.9,29.71,ENE,68,0.0,0.0,79,0.00,,---,0.00,VWS V14.01,2013-04-13 12:28:00,
2013-04-13 08:33:00,51.8,44.5,29.71,NW,315,2.7,2.7,76,0.00,,---,0.00,VWS V14.01,2013-04-13 12:33:00,
2013-04-13 08:38:00,53.4,43.9,29.71,NNW,338,0.0,0.0,70,0.00,,---,0.00,VWS V14.01,2013-04-13 12:38:00,
2013-04-13 09:10:00,57.7,47.7,29.71,WNW,292,4.3,4.3,69,0.00,,---,0.00,VWS V14.01,2013-04-13 13:10:00,
2013-04-13 09:15:00,57.7,44.8,29.71,WNW,292,2.2,2.2,62,0.00,,---,0.00,VWS V14.01,2013-04-13 13:15:00,
2013-04-13 09:20:00,59.2,48.2,29.71,WNW,292,4.3,4.3,67,0.00,,---,0.00,VWS V14.01,2013-04-13 13:20:00,
2013-04-13 09:25:00,60.1,48.3,29.71,NNW,338,2.0,2.0,65,0.00,,---,0.00,VWS V14.01,2013-04-13 13:25:00,
2013-04-13 09:30:00,58.8,44.1,29.71,NW,315,2.2,2.2,58,0.00,,---,0.00,VWS V14.01,2013-04-13 13:30:00,
2013-04-13 09:35:00,60.6,48.0,29.71,WSW,248,2.5,2.9,63,0.00,,---,0.00,VWS V14.01,2013-04-13 13:35:00,
2013-04-13 09:40:00,61.5,48.8,29.71,NNW,338,0.0,0.9,63,0.00,,---,0.00,VWS V14.01,2013-04-13 13:40:00,
2013-04-13 09:46:00,61.0,44.2,29.71,SSW,202,4.3,4.3,54,0.00,,---,0.00,VWS V14.01,2013-04-13 13:46:00,
2013-04-13 09:51:00,63.1,49.9,29.71,WNW,292,6.7,6.7,62,0.00,,---,0.00,VWS V14.01,2013-04-13 13:51:00,
2013-04-13 09:56:00,62.6,47.2,29.71,NNW,338,3.4,3.4,57,0.00,,---,0.00,VWS V14.01,2013-04-13 13:56:00,
2013-04-13 10:02:00,63.0,43.0,29.71,NE,45,3.1,4.0,48,0.00,,---,0.00,VWS V14.01,2013-04-13 14:02:00,
2013-04-13 10:07:00,62.6,43.2,29.71,NNW,338,1.3,2.0,49,0.00,,---,0.00,VWS V14.01,2013-04-13 14:07:00,
2013-04-13 10:12:00,62.2,40.7,29.71,NW,315,2.0,2.0,45,0.00,,---,0.00,VWS V14.01,2013-04-13 14:12:00,
2013-04-13 10:17:00,63.5,44.0,29.71,West,270,5.4,5.4,49,0.00,,---,0.00,VWS V14.01,2013-04-13 14:17:00,
2013-04-13 10:22:00,63.1,43.2,29.71,WNW,292,8.5,8.5,48,0.00,,---,0.00,VWS V14.01,2013-04-13 14:22:00,
2013-04-13 10:27:00,61.0,41.7,29.71,NNW,338,3.1,3.1,49,0.00,,---,0.00,VWS V14.01,2013-04-13 14:27:00,
2013-04-13 10:32:00,59.9,41.8,29.71,NNE,22,4.0,4.0,51,0.00,,---,0.00,VWS V14.01,2013-04-13 14:32:00,
2013-04-13 10:37:00,58.8,40.2,29.71,WNW,292,2.5,2.5,50,0.00,,---,0.00,VWS V14.01,2013-04-13 14:37:00,
2013-04-13 10:42:00,57.9,36.7,29.71,WNW,292,4.3,4.3,45,0.00,,---,0.00,VWS V14.01,2013-04-13 14:42:00,
2013-04-13 10:47:00,57.7,39.2,29.71,WNW,292,4.3,8.5,50,0.00,,---,0.00,VWS V14.01,2013-04-13 14:47:00,
2013-04-13 10:53:00,57.4,38.9,29.71,NNW,338,3.4,8.1,50,0.00,,---,0.00,VWS V14.01,2013-04-13 14:53:00,
2013-04-13 10:58:00,57.2,36.6,29.71,NNE,22,3.1,4.9,46,0.00,,---,0.00,VWS V14.01,2013-04-13 14:58:00,
2013-04-13 11:03:00,57.2,37.7,29.71,ENE,68,1.6,1.6,48,0.00,,---,0.00,VWS V14.01,2013-04-13 15:03:00,
2013-04-13 11:08:00,58.5,39.9,29.71,WNW,292,4.9,4.9,50,0.00,,---,0.00,VWS V14.01,2013-04-13 15:08:00,
2013-04-13 11:13:00,58.1,37.5,29.71,SSW,202,2.9,3.4,46,0.00,,---,0.00,VWS V14.01,2013-04-13 15:13:00,
2013-04-13 11:18:00,58.1,38.5,29.71,North,0,3.8,3.8,48,0.00,,---,0.00,VWS V14.01,2013-04-13 15:18:00,
2013-04-13 11:23:00,58.1,39.1,29.71,NNW,338,3.4,4.3,49,0.00,,---,0.00,VWS V14.01,2013-04-13 15:23:00,
2013-04-13 11:28:00,59.2,40.0,29.71,NNW,338,2.7,3.1,49,0.00,,---,0.00,VWS V14.01,2013-04-13 15:28:00,
2013-04-13 11:33:00,60.6,38.6,29.71,NNW,338,4.0,4.0,44,0.00,,---,0.00,VWS V14.01,2013-04-13 15:33:00,
2013-04-13 11:38:00,59.7,39.5,29.71,NW,315,4.9,4.9,47,0.00,,---,0.00,VWS V14.01,2013-04-13 15:38:00,
2013-04-13 11:43:00,58.8,39.2,29.71,ESE,112,2.9,2.9,48,0.00,,---,0.00,VWS V14.01,2013-04-13 15:43:00,
2013-04-13 11:48:00,58.3,37.6,29.71,NNE,22,3.6,3.6,46,0.00,,---,0.00,VWS V14.01,2013-04-13 15:48:00,
2013-04-13 11:53:00,58.1,38.0,29.68,NE,45,4.3,4.3,47,0.00,,---,0.00,VWS V14.01,2013-04-13 15:53:00,
2013-04-13 11:58:00,61.0,40.1,29.68,NNW,338,5.8,5.8,46,0.00,,---,0.00,VWS V14.01,2013-04-13 15:58:00,
2013-04-13 12:04:00,61.0,39.5,29.68,ENE,68,3.8,3.8,45,0.00,,---,0.00,VWS V14.01,2013-04-13 16:04:00,
2013-04-13 12:09:00,61.2,37.3,29.68,ENE,68,7.6,7.6,41,0.00,,---,0.00,VWS V14.01,2013-04-13 16:09:00,
2013-04-13 12:14:00,63.5,41.2,29.68,WSW,248,6.0,7.4,44,0.00,,---,0.00,VWS V14.01,2013-04-13 16:14:00,
2013-04-13 12:19:00,64.2,36.7,29.68,NNW,338,9.4,9.4,36,0.00,,---,0.00,VWS V14.01,2013-04-13 16:19:00,
2013-04-13 12:24:00,63.1,35.8,29.68,NNE,22,2.7,6.9,36,0.00,,---,0.00,VWS V14.01,2013-04-13 16:24:00,
2013-04-13 12:29:00,63.7,37.0,29.68,NNW,338,7.2,7.2,37,0.00,,---,0.00,VWS V14.01,2013-04-13 16:29:00,
2013-04-13 12:34:00,60.6,34.2,29.68,NW,315,1.6,1.6,37,0.00,,---,0.00,VWS V14.01,2013-04-13 16:34:00,
2013-04-13 12:39:00,63.5,36.8,29.68,NNW,338,3.6,3.6,37,0.00,,---,0.00,VWS V14.01,2013-04-13 16:39:00,
2013-04-13 12:44:00,63.0,36.3,29.68,NNE,22,4.7,7.2,37,0.00,,---,0.00,VWS V14.01,2013-04-13 16:44:00,
2013-04-13 12:49:00,66.2,39.9,29.68,NNW,338,3.1,3.1,38,0.00,,---,0.00,VWS V14.01,2013-04-13 16:49:00,
2013-04-13 12:54:00,66.0,38.3,29.68,NW,315,4.3,4.3,36,0.00,,---,0.00,VWS V14.01,2013-04-13 16:54:00,
2013-04-13 12:59:00,65.8,37.5,29.68,WNW,292,3.8,9.6,35,0.00,,---,0.00,VWS V14.01,2013-04-13 16:59:00,
2013-04-13 13:04:00,65.8,36.7,29.68,NNW,338,12.8,12.8,34,0.00,,---,0.00,VWS V14.01,2013-04-13 17:04:00,
2013-04-13 13:09:00,66.6,38.1,29.68,NNW,338,5.8,10.3,35,0.00,,---,0.00,VWS V14.01,2013-04-13 17:09:00,
2013-04-13 13:14:00,66.0,39.0,29.68,NW,315,4.5,4.9,37,0.00,,---,0.00,VWS V14.01,2013-04-13 17:14:00,
2013-04-13 13:19:00,65.1,37.5,29.68,NNE,22,5.8,5.8,36,0.00,,---,0.00,VWS V14.01,2013-04-13 17:19:00,
2013-04-13 13:25:00,67.1,39.3,29.68,ENE,68,4.9,4.9,36,0.00,,---,0.00,VWS V14.01,2013-04-13 17:25:00,
2013-04-13 13:30:00,64.4,35.5,29.68,NNE,22,3.1,3.1,34,0.00,,---,0.00,VWS V14.01,2013-04-13 17:30:00,
2013-04-13 13:35:00,64.2,36.7,29.68,NNE,22,3.1,3.1,36,0.00,,---,0.00,VWS V14.01,2013-04-13 17:35:00,
2013-04-13 13:40:00,64.8,37.9,29.68,WNW,292,2.7,2.9,37,0.00,,---,0.00,VWS V14.01,2013-04-13 17:40:00,
2013-04-13 13:45:00,64.4,36.9,29.68,NNE,22,2.7,2.7,36,0.00,,---,0.00,VWS V14.01,2013-04-13 17:45:00,
2013-04-13 13:50:00,63.0,36.3,29.68,NNW,338,2.7,2.7,37,0.00,,---,0.00,VWS V14.01,2013-04-13 17:50:00,
2013-04-13 13:55:00,63.5,36.8,29.68,WNW,292,2.9,4.3,37,0.00,,---,0.00,VWS V14.01,2013-04-13 17:55:00,
2013-04-13 14:01:00,66.0,39.0,29.68,NW,315,3.6,3.6,37,0.00,,---,0.00,VWS V14.01,2013-04-13 18:01:00,
2013-04-13 14:06:00,67.5,40.3,29.68,WNW,292,9.8,9.8,37,0.00,,---,0.00,VWS V14.01,2013-04-13 18:06:00,
2013-04-13 14:11:00,68.0,40.8,29.68,WNW,292,3.4,3.4,37,0.00,,---,0.00,VWS V14.01,2013-04-13 18:11:00,
2013-04-13 14:16:00,66.9,39.1,29.68,WNW,292,2.5,2.5,36,0.00,,---,0.00,VWS V14.01,2013-04-13 18:16:00,
2013-04-13 14:21:00,64.6,35.6,29.68,WNW,292,2.0,2.0,34,0.00,,---,0.00,VWS V14.01,2013-04-13 18:21:00,
2013-04-13 14:27:00,62.2,38.9,29.68,SE,135,3.1,3.4,42,0.00,,---,0.00,VWS V14.01,2013-04-13 18:27:00,
2013-04-13 14:32:00,64.8,42.4,29.68,SSW,202,4.0,4.0,44,0.00,,---,0.00,VWS V14.01,2013-04-13 18:32:00,
2013-04-13 14:37:00,65.5,43.0,29.68,SSW,202,4.9,4.9,44,0.00,,---,0.00,VWS V14.01,2013-04-13 18:37:00,
2013-04-13 14:42:00,66.2,43.1,29.68,West,270,4.0,4.0,43,0.00,,---,0.00,VWS V14.01,2013-04-13 18:42:00,
2013-04-13 14:47:00,65.7,43.2,29.68,WNW,292,2.5,2.5,44,0.00,,---,0.00,VWS V14.01,2013-04-13 18:47:00,
2013-04-13 14:52:00,65.5,43.0,29.68,WNW,292,3.1,3.4,44,0.00,,---,0.00,VWS V14.01,2013-04-13 18:52:00,
2013-04-13 14:57:00,65.5,43.0,29.68,West,270,2.7,2.7,44,0.00,,---,0.00,VWS V14.01,2013-04-13 18:57:00,
2013-04-13 15:02:00,64.0,42.3,29.68,SSE,158,2.2,2.2,45,0.00,,---,0.00,VWS V14.01,2013-04-13 19:02:00,
2013-04-13 15:07:00,64.9,42.5,29.68,SSW,202,2.2,3.1,44,0.00,,---,0.00,VWS V14.01,2013-04-13 19:07:00,
2013-04-13 15:12:00,63.9,41.5,29.68,SSE,158,5.6,5.6,44,0.00,,---,0.00,VWS V14.01,2013-04-13 19:12:00,
2013-04-13 15:17:00,61.3,40.4,29.68,East,90,2.0,3.1,46,0.00,,---,0.00,VWS V14.01,2013-04-13 19:17:00,
2013-04-13 15:22:00,60.4,40.7,29.68,SSE,158,1.1,3.6,48,0.00,,---,0.00,VWS V14.01,2013-04-13 19:22:00,
2013-04-13 15:27:00,60.4,41.2,29.68,South,180,2.0,2.0,49,0.00,,---,0.00,VWS V14.01,2013-04-13 19:27:00,
2013-04-13 15:32:00,61.5,41.7,29.68,SSW,202,3.1,4.0,48,0.00,,---,0.00,VWS V14.01,2013-04-13 19:32:00,
2013-04-13 15:37:00,60.4,41.2,29.68,SSE,158,6.3,6.3,49,0.00,,---,0.00,VWS V14.01,2013-04-13 19:37:00,
2013-04-13 15:42:00,59.9,41.8,29.68,SSE,158,3.1,3.4,51,0.00,,---,0.00,VWS V14.01,2013-04-13 19:42:00,
2013-04-13 15:47:00,60.6,41.4,29.68,SSW,202,2.9,2.9,49,0.00,,---,0.00,VWS V14.01,2013-04-13 19:47:00,
2013-04-13 15:52:00,60.4,41.2,29.68,SSE,158,2.9,2.9,49,0.00,,---,0.00,VWS V14.01,2013-04-13 19:52:00,
2013-04-13 15:57:00,59.9,40.7,29.68,SW,225,2.9,2.9,49,0.00,,---,0.00,VWS V14.01,2013-04-13 19:57:00,
2013-04-13 16:02:00,60.1,40.9,29.68,ESE,112,2.9,2.9,49,0.00,,---,0.00,VWS V14.01,2013-04-13 20:02:00,
2013-04-13 16:07:00,58.5,39.9,29.68,SSW,202,4.0,4.0,50,0.00,,---,0.00,VWS V14.01,2013-04-13 20:07:00,
2013-04-13 16:12:00,58.1,39.6,29.68,WSW,248,6.0,6.0,50,0.00,,---,0.00,VWS V14.01,2013-04-13 20:12:00,
2013-04-13 16:17:00,57.7,39.2,29.68,SSE,158,1.3,1.6,50,0.00,,---,0.00,VWS V14.01,2013-04-13 20:17:00,
2013-04-13 16:22:00,58.3,40.8,29.68,SSE,158,2.5,2.5,52,0.00,,---,0.00,VWS V14.01,2013-04-13 20:22:00,
2013-04-13 16:27:00,57.7,41.2,29.68,ESE,112,2.7,2.7,54,0.00,,---,0.00,VWS V14.01,2013-04-13 20:27:00,
2013-04-13 16:32:00,58.1,42.0,29.68,WSW,248,2.5,2.9,55,0.00,,---,0.00,VWS V14.01,2013-04-13 20:32:00,
2013-04-13 16:37:00,58.5,41.9,29.68,SSW,202,2.2,3.1,54,0.00,,---,0.00,VWS V14.01,2013-04-13 20:37:00,
2013-04-13 16:42:00,58.5,42.4,29.65,SW,225,2.5,3.1,55,0.00,,---,0.00,VWS V14.01,2013-04-13 20:42:00,
2013-04-13 16:47:00,58.6,42.5,29.65,SW,225,5.6,5.6,55,0.00,,---,0.00,VWS V14.01,2013-04-13 20:47:00,
2013-04-13 16:52:00,59.4,43.2,29.65,ENE,68,2.9,3.1,55,0.00,,---,0.00,VWS V14.01,2013-04-13 20:52:00,
2013-04-13 16:57:00,58.1,42.5,29.62,SSW,202,2.5,2.5,56,0.00,,---,0.00,VWS V14.01,2013-04-13 20:57:00,
2013-04-13 17:02:00,57.7,42.6,29.62,South,180,2.2,4.7,57,0.00,,---,0.00,VWS V14.01,2013-04-13 21:02:00,
2013-04-13 17:07:00,58.3,43.1,29.62,SW,225,3.4,3.4,57,0.00,,---,0.00,VWS V14.01,2013-04-13 21:07:00,
2013-04-13 17:12:00,58.1,43.0,29.65,South,180,2.7,2.7,57,0.00,,---,0.00,VWS V14.01,2013-04-13 21:12:00,
2013-04-13 17:17:00,57.6,42.5,29.65,SSE,158,4.0,4.0,57,0.00,,---,0.00,VWS V14.01,2013-04-13 21:17:00,
2013-04-13 17:22:00,57.0,42.4,29.65,South,180,2.9,2.9,58,0.00,,---,0.00,VWS V14.01,2013-04-13 21:22:00,
2013-04-13 17:27:00,56.5,42.3,29.65,SSW,202,2.0,2.0,59,0.00,,---,0.00,VWS V14.01,2013-04-13 21:27:00,
2013-04-13 17:32:00,56.7,42.5,29.65,South,180,3.8,3.8,59,0.00,,---,0.00,VWS V14.01,2013-04-13 21:32:00,
2013-04-13 17:37:00,56.7,42.5,29.65,SSW,202,3.4,3.4,59,0.00,,---,0.00,VWS V14.01,2013-04-13 21:37:00,
2013-04-13 17:42:00,56.8,42.7,29.65,SW,225,4.5,4.5,59,0.00,,---,0.00,VWS V14.01,2013-04-13 21:42:00,
2013-04-13 17:47:00,57.0,42.8,29.65,SSW,202,3.8,3.8,59,0.00,,---,0.00,VWS V14.01,2013-04-13 21:47:00,
2013-04-13 17:52:00,56.3,42.2,29.65,SSE,158,2.5,2.5,59,0.00,,---,0.00,VWS V14.01,2013-04-13 21:52:00,
2013-04-13 17:57:00,55.6,41.5,29.65,SSE,158,2.5,2.5,59,0.00,,---,0.00,VWS V14.01,2013-04-13 21:57:00,
2013-04-13 18:02:00,55.2,41.6,29.65,SSW,202,3.8,3.8,60,0.00,,---,0.00,VWS V14.01,2013-04-13 22:02:00,
2013-04-13 18:07:00,55.2,41.2,29.65,SSW,202,2.9,2.9,59,0.00,,---,0.00,VWS V14.01,2013-04-13 22:07:00,
2013-04-13 18:12:00,55.4,41.8,29.65,South,180,3.1,3.6,60,0.00,,---,0.00,VWS V14.01,2013-04-13 22:12:00,
2013-04-13 18:17:00,55.4,41.8,29.65,SSW,202,4.3,4.3,60,0.00,,---,0.00,VWS V14.01,2013-04-13 22:17:00,
2013-04-13 18:22:00,55.0,41.8,29.65,SSE,158,4.9,5.6,61,0.00,,---,0.00,VWS V14.01,2013-04-13 22:22:00,
2013-04-13 18:27:00,54.9,41.7,29.62,SSW,202,4.7,4.9,61,0.00,,---,0.00,VWS V14.01,2013-04-13 22:27:00,
2013-04-13 18:32:00,54.3,42.0,29.62,SSW,202,3.4,3.4,63,0.00,,---,0.00,VWS V14.01,2013-04-13 22:32:00,
2013-04-13 18:37:00,54.3,42.0,29.62,SSW,202,2.9,3.6,63,0.00,,---,0.00,VWS V14.01,2013-04-13 22:37:00,
2013-04-13 18:42:00,54.1,42.2,29.65,SSW,202,3.8,3.8,64,0.00,,---,0.00,VWS V14.01,2013-04-13 22:42:00,
2013-04-13 18:47:00,53.8,42.3,29.65,SSE,158,2.9,2.9,65,0.00,,---,0.00,VWS V14.01,2013-04-13 22:47:00,
2013-04-13 18:52:00,53.8,42.3,29.65,South,180,2.7,2.7,65,0.00,,---,0.00,VWS V14.01,2013-04-13 22:52:00,
2013-04-13 18:57:00,53.4,42.4,29.65,SSW,202,3.1,3.6,66,0.00,,---,0.00,VWS V14.01,2013-04-13 22:57:00,
2013-04-13 19:02:00,53.2,42.2,29.65,SW,225,3.6,3.6,66,0.00,,---,0.00,VWS V14.01,2013-04-13 23:02:00,
2013-04-13 19:07:00,53.1,42.4,29.65,SSW,202,2.9,3.1,67,0.00,,---,0.00,VWS V14.01,2013-04-13 23:07:00,
2013-04-13 19:12:00,52.9,42.2,29.68,SSW,202,3.4,3.4,67,0.00,,---,0.00,VWS V14.01,2013-04-13 23:12:00,
2013-04-13 19:17:00,52.7,42.1,29.68,SW,225,3.8,3.8,67,0.00,,---,0.00,VWS V14.01,2013-04-13 23:17:00,
2013-04-13 19:22:00,52.2,41.9,29.68,SSW,202,0.9,1.3,68,0.00,,---,0.00,VWS V14.01,2013-04-13 23:22:00,
2013-04-13 19:27:00,52.0,42.1,29.68,SSW,202,3.4,3.4,69,0.00,,---,0.00,VWS V14.01,2013-04-13 23:27:00,
2013-04-13 19:32:00,51.8,42.3,29.68,SSW,202,2.0,2.7,70,0.00,,---,0.00,VWS V14.01,2013-04-13 23:32:00,
2013-04-13 19:37:00,51.6,42.5,29.68,SSW,202,4.0,4.0,71,0.00,,---,0.00,VWS V14.01,2013-04-13 23:37:00,
2013-04-13 19:42:00,51.4,42.4,29.68,WSW,248,2.9,3.6,71,0.00,,---,0.00,VWS V14.01,2013-04-13 23:42:00,
2013-04-13 19:47:00,51.3,42.5,29.68,SSW,202,2.9,2.9,72,0.00,,---,0.00,VWS V14.01,2013-04-13 23:47:00,
2013-04-13 19:52:00,51.1,42.7,29.68,SSW,202,2.0,3.4,73,0.00,,---,0.00,VWS V14.01,2013-04-13 23:52:00,
2013-04-13 19:57:00,50.9,42.6,29.68,SSW,202,2.9,2.9,73,0.00,,---,0.00,VWS V14.01,2013-04-13 23:57:00,
2013-04-13 20:02:00,50.9,42.9,29.68,South,180,2.5,2.5,74,0.00,,---,0.00,VWS V14.01,2013-04-14 00:02:00,
2013-04-13 20:07:00,50.5,42.6,29.68,SSW,202,2.0,2.0,74,0.00,,---,0.00,VWS V14.01,2013-04-14 00:07:00,
2013-04-13 20:12:00,50.9,42.9,29.68,SSW,202,2.5,3.4,74,0.00,,---,0.00,VWS V14.01,2013-04-14 00:12:00,
2013-04-13 20:17:00,50.5,42.6,29.68,South,180,1.1,1.3,74,0.00,,---,0.00,VWS V14.01,2013-04-14 00:17:00,
2013-04-13 20:22:00,50.4,42.8,29.68,SSW,202,2.0,2.0,75,0.00,,---,0.00,VWS V14.01,2013-04-14 00:22:00,
2013-04-13 20:27:00,50.2,42.6,29.71,SSW,202,5.4,5.4,75,0.00,,---,0.00,VWS V14.01,2013-04-14 00:27:00,
2013-04-13 20:32:00,50.2,42.6,29.71,SSW,202,2.9,2.9,75,0.00,,---,0.00,VWS V14.01,2013-04-14 00:32:00,
2013-04-13 20:37:00,50.2,42.9,29.71,South,180,1.6,1.6,76,0.00,,---,0.00,VWS V14.01,2013-04-14 00:37:00,
2013-04-13 20:42:00,50.0,42.7,29.71,SSW,202,3.4,3.4,76,0.00,,---,0.00,VWS V14.01,2013-04-14 00:42:00,
2013-04-13 20:47:00,50.0,43.1,29.71,SSW,202,1.3,2.0,77,0.00,,---,0.00,VWS V14.01,2013-04-14 00:47:00,
2013-04-13 20:52:00,49.8,42.9,29.71,SSW,202,3.1,3.1,77,0.00,,---,0.00,VWS V14.01,2013-04-14 00:52:00,
2013-04-13 20:57:00,49.8,43.2,29.71,SSW,202,3.4,3.4,78,0.00,,---,0.00,VWS V14.01,2013-04-14 00:57:00,
2013-04-13 21:02:00,49.6,43.1,29.71,SSW,202,2.9,2.9,78,0.00,,---,0.00,VWS V14.01,2013-04-14 01:02:00,
2013-04-13 21:07:00,49.6,43.1,29.71,SSE,158,2.7,2.7,78,0.00,,---,0.00,VWS V14.01,2013-04-14 01:07:00,
2013-04-13 21:12:00,49.5,42.9,29.71,South,180,2.9,3.1,78,0.00,,---,0.00,VWS V14.01,2013-04-14 01:12:00,
2013-04-13 21:17:00,49.5,43.2,29.71,SSW,202,2.9,2.9,79,0.00,,---,0.00,VWS V14.01,2013-04-14 01:17:00,
2013-04-13 21:22:00,49.5,43.2,29.71,SSW,202,2.0,2.7,79,0.00,,---,0.00,VWS V14.01,2013-04-14 01:22:00,
2013-04-13 21:27:00,49.5,43.6,29.71,SSW,202,1.6,1.6,80,0.00,,---,0.00,VWS V14.01,2013-04-14 01:27:00,
2013-04-13 21:32:00,49.3,43.4,29.71,SSW,202,1.6,2.5,80,0.00,,---,0.00,VWS V14.01,2013-04-14 01:32:00,
2013-04-13 21:37:00,49.3,43.4,29.71,SSW,202,2.7,2.7,80,0.00,,---,0.00,VWS V14.01,2013-04-14 01:37:00,
2013-04-13 21:42:00,49.5,43.6,29.71,SSW,202,3.1,3.1,80,0.00,,---,0.00,VWS V14.01,2013-04-14 01:42:00,
2013-04-13 21:47:00,49.5,43.9,29.71,SSW,202,3.8,3.8,81,0.00,,---,0.00,VWS V14.01,2013-04-14 01:47:00,
2013-04-13 21:52:00,49.5,43.9,29.71,SSW,202,2.0,2.0,81,0.00,,---,0.00,VWS V14.01,2013-04-14 01:52:00,
2013-04-13 21:57:00,49.5,43.9,29.74,SSW,202,1.6,1.6,81,0.00,,---,0.00,VWS V14.01,2013-04-14 01:57:00,
2013-04-13 22:02:00,49.3,43.7,29.74,SSW,202,1.3,1.3,81,0.00,,---,0.00,VWS V14.01,2013-04-14 02:02:00,
2013-04-13 22:07:00,48.9,43.0,29.74,SSW,202,1.6,1.6,80,0.00,,---,0.00,VWS V14.01,2013-04-14 02:07:00,
2013-04-13 22:12:00,48.9,43.0,29.74,SSW,202,0.0,0.9,80,0.00,,---,0.00,VWS V14.01,2013-04-14 02:12:00,
2013-04-13 22:17:00,48.7,42.9,29.74,SSW,202,2.0,2.2,80,0.00,,---,0.00,VWS V14.01,2013-04-14 02:17:00,
2013-04-13 22:22:00,48.7,42.9,29.74,SSW,202,0.0,0.0,80,0.00,,---,0.00,VWS V14.01,2013-04-14 02:22:00,
2013-04-13 22:27:00,47.8,42.3,29.74,SSW,202,0.0,0.0,81,0.00,,---,0.00,VWS V14.01,2013-04-14 02:27:00,
2013-04-13 22:32:00,47.7,42.1,29.74,WSW,248,0.0,0.0,81,0.00,,---,0.00,VWS V14.01,2013-04-14 02:32:00,
2013-04-13 22:37:00,47.7,42.4,29.74,WSW,248,0.0,0.0,82,0.00,,---,0.00,VWS V14.01,2013-04-14 02:37:00,
2013-04-13 22:42:00,47.7,42.4,29.74,WSW,248,0.0,0.9,82,0.00,,---,0.00,VWS V14.01,2013-04-14 02:42:00,
2013-04-13 22:47:00,47.7,42.4,29.74,WSW,248,0.0,0.0,82,0.00,,---,0.00,VWS V14.01,2013-04-14 02:47:00,
2013-04-13 22:52:00,48.2,43.3,29.74,WSW,248,0.0,0.0,83,0.00,,---,0.00,VWS V14.01,2013-04-14 02:52:00,
2013-04-13 22:57:00,48.4,43.2,29.76,WSW,248,3.6,3.6,82,0.00,,---,0.00,VWS V14.01,2013-04-14 02:57:00,
2013-04-13 23:02:00,48.9,43.7,29.76,WSW,248,2.2,3.4,82,0.00,,---,0.00,VWS V14.01,2013-04-14 03:02:00,
2013-04-13 23:07:00,49.1,43.5,29.76,WSW,248,2.9,3.1,81,0.00,,---,0.00,VWS V14.01,2013-04-14 03:07:00,
2013-04-13 23:12:00,49.3,43.4,29.76,WSW,248,0.9,1.6,80,0.00,,---,0.00,VWS V14.01,2013-04-14 03:12:00,
2013-04-13 23:17:00,49.3,43.0,29.76,WNW,292,2.7,3.1,79,0.00,,---,0.00,VWS V14.01,2013-04-14 03:17:00,
2013-04-13 23:22:00,49.5,43.2,29.76,WSW,248,2.2,2.2,79,0.00,,---,0.00,VWS V14.01,2013-04-14 03:22:00,
2013-04-13 23:27:00,49.6,43.1,29.76,WSW,248,1.6,2.9,78,0.00,,---,0.00,VWS V14.01,2013-04-14 03:27:00,
2013-04-13 23:32:00,49.6,42.7,29.76,WSW,248,0.0,0.0,77,0.00,,---,0.00,VWS V14.01,2013-04-14 03:32:00,
2013-04-13 23:37:00,49.5,42.6,29.76,WNW,292,0.0,0.0,77,0.00,,---,0.00,VWS V14.01,2013-04-14 03:37:00,
2013-04-13 23:42:00,49.5,42.6,29.76,WNW,292,0.9,0.9,77,0.00,,---,0.00,VWS V14.01,2013-04-14 03:42:00,
2013-04-13 23:47:00,49.6,43.1,29.76,WNW,292,2.0,2.0,78,0.00,,---,0.00,VWS V14.01,2013-04-14 03:47:00,
2013-04-13 23:52:00,49.6,43.1,29.76,WNW,292,0.0,1.3,78,0.00,,---,0.00,VWS V14.01,2013-04-14 03:52:00,
2013-04-13 23:57:00,49.8,42.9,29.76,SSW,202,1.3,1.3,77,0.00,,---,0.00,VWS V14.01,2013-04-14 03:57:00,